createdAt,value
2022-09-28T00:01:12.392Z,13.40
2022-09-28T00:03:59.328Z,13.30
2022-09-28T00:06:45.110Z,13.30
2022-09-28T00:09:30.763Z,13.20
2022-09-28T00:12:16.253Z,13.10
2022-09-28T00:15:03.491Z,13.10
2022-09-28T00:17:49.003Z,13.10
2022-09-28T00:20:34.492Z,13.10
2022-09-28T00:23:20.092Z,13.10
2022-09-28T00:26:06.065Z,13.10
2022-09-28T00:28:53.219Z,13.10
2022-09-28T00:31:38.834Z,13.10
2022-09-28T00:34:24.293Z,13.00
2022-09-28T00:37:10.571Z,13.00
2022-09-28T00:39:56.380Z,13.00
2022-09-28T00:42:42.924Z,13.10
2022-09-28T00:45:28.829Z,13.10
2022-09-28T00:48:14.986Z,13.10
2022-09-28T00:51:04.604Z,13.10
2022-09-28T00:53:51.637Z,13.10
2022-09-28T00:56:40.646Z,13.10
2022-09-28T00:59:26.764Z,13.10
2022-09-28T01:02:12.584Z,13.10
2022-09-28T01:05:00.547Z,13.00
2022-09-28T01:07:47.420Z,13.00
2022-09-28T01:10:33.507Z,13.00
2022-09-28T01:13:21.548Z,13.00
2022-09-28T01:16:41.115Z,13.10
2022-09-28T01:20:16.029Z,13.00
2022-09-28T01:23:13.899Z,13.00
2022-09-28T01:26:25.280Z,12.90
2022-09-28T01:29:22.100Z,12.80
2022-09-28T01:32:14.113Z,12.80
2022-09-28T01:35:09.975Z,13.80
2022-09-28T01:38:10.502Z,12.70
2022-09-28T01:40:58.137Z,12.70
2022-09-28T01:43:50.503Z,12.70
2022-09-28T01:46:46.644Z,12.70
2022-09-28T01:49:40.158Z,12.70
2022-09-28T01:52:31.192Z,12.70
2022-09-28T01:55:35.047Z,12.70
2022-09-28T01:58:33.808Z,12.70
2022-09-28T02:01:29.354Z,12.60
2022-09-28T02:04:40.170Z,12.60
2022-09-28T02:07:45.263Z,12.50
2022-09-28T02:10:38.018Z,12.50
2022-09-28T02:13:40.840Z,12.50
2022-09-28T02:16:49.472Z,12.50
2022-09-28T02:19:36.216Z,12.50
2022-09-28T02:22:57.798Z,12.50
2022-09-28T02:25:50.368Z,12.50
2022-09-28T02:28:38.244Z,12.40
2022-09-28T02:31:24.289Z,12.50
2022-09-28T02:34:09.833Z,12.50
2022-09-28T02:36:55.721Z,12.50
2022-09-28T02:39:41.108Z,12.40
2022-09-28T02:42:38.788Z,12.50
2022-09-28T02:45:39.642Z,12.50
2022-09-28T02:48:55.799Z,12.50
2022-09-28T02:52:10.969Z,12.50
2022-09-28T02:55:26.318Z,12.50
2022-09-28T02:58:12.056Z,12.50
2022-09-28T03:01:06.689Z,12.50
2022-09-28T03:04:07.614Z,12.50
2022-09-28T03:07:06.535Z,12.50
2022-09-28T03:10:18.047Z,12.50
2022-09-28T03:13:04.887Z,12.50
2022-09-28T03:15:51.976Z,12.50
2022-09-28T03:18:37.493Z,12.40
2022-09-28T03:21:23.746Z,12.50
2022-09-28T03:24:11.106Z,12.50
2022-09-28T03:26:56.656Z,12.50
2022-09-28T03:29:42.328Z,12.50
2022-09-28T03:32:28.416Z,12.50
2022-09-28T03:35:13.969Z,12.50
2022-09-28T03:37:59.401Z,12.50
2022-09-28T03:40:56.388Z,12.40
2022-09-28T03:43:42.024Z,12.40
2022-09-28T03:46:27.995Z,12.30
2022-09-28T03:49:17.747Z,12.30
2022-09-28T03:52:04.068Z,12.30
2022-09-28T03:54:49.575Z,12.30
2022-09-28T03:57:34.991Z,12.40
2022-09-28T04:00:20.372Z,12.30
2022-09-28T04:03:05.924Z,12.30
2022-09-28T04:05:52.785Z,12.30
2022-09-28T04:08:39.037Z,12.30
2022-09-28T04:11:24.961Z,12.20
2022-09-28T04:14:10.433Z,12.30
2022-09-28T04:16:55.927Z,12.30
2022-09-28T04:19:43.987Z,12.30
2022-09-28T04:22:55.488Z,12.20
2022-09-28T04:25:41.094Z,12.20
2022-09-28T04:28:45.092Z,12.20
2022-09-28T04:31:36.905Z,12.20
2022-09-28T04:34:23.789Z,12.20
2022-09-28T04:37:09.340Z,12.20
2022-09-28T04:39:57.548Z,12.20
2022-09-28T04:42:43.282Z,12.10
2022-09-28T04:45:28.951Z,12.10
2022-09-28T04:48:21.431Z,12.20
2022-09-28T04:51:19.124Z,12.20
2022-09-28T04:54:04.752Z,12.20
2022-09-28T04:56:52.572Z,12.20
2022-09-28T04:59:38.705Z,12.20
2022-09-28T05:02:27.489Z,12.20
2022-09-28T05:05:49.332Z,12.20
2022-09-28T05:08:53.961Z,12.20
2022-09-28T05:11:39.882Z,12.10
2022-09-28T05:14:30.595Z,12.10
2022-09-28T05:17:16.823Z,12.10
2022-09-28T05:20:09.173Z,12.20
2022-09-28T05:22:55.137Z,12.20
2022-09-28T05:25:41.189Z,12.20
2022-09-28T05:28:35.151Z,12.10
2022-09-28T05:31:56.440Z,12.10
2022-09-28T05:35:06.313Z,12.10
2022-09-28T05:38:04.586Z,12.10
2022-09-28T05:40:50.520Z,12.10
2022-09-28T05:43:36.926Z,12.10
2022-09-28T05:46:24.201Z,12.10
2022-09-28T05:49:10.735Z,12.10
2022-09-28T05:51:56.216Z,12.10
2022-09-28T05:54:41.964Z,12.10
2022-09-28T05:57:27.428Z,12.00
2022-09-28T06:00:13.104Z,12.00
2022-09-28T06:03:03.414Z,12.10
2022-09-28T06:05:52.630Z,12.40
2022-09-28T06:08:38.325Z,12.70
2022-09-28T06:11:40.253Z,12.90
2022-09-28T06:14:40.842Z,13.10
2022-09-28T06:17:26.410Z,13.40
2022-09-28T06:20:35.848Z,13.40
2022-09-28T06:23:33.071Z,13.60
2022-09-28T06:26:19.402Z,13.40
2022-09-28T06:29:05.209Z,13.50
2022-09-28T06:31:51.480Z,13.70
2022-09-28T06:34:37.383Z,13.70
2022-09-28T06:37:23.344Z,13.80
2022-09-28T06:40:09.780Z,13.70
2022-09-28T06:42:58.204Z,13.70
2022-09-28T06:46:10.720Z,13.70
2022-09-28T06:48:56.587Z,13.70
2022-09-28T06:52:02.245Z,13.90
2022-09-28T06:55:07.719Z,14.00
2022-09-28T06:58:06.540Z,14.00
2022-09-28T07:00:52.498Z,14.00
2022-09-28T07:03:38.066Z,14.00
2022-09-28T07:06:50.592Z,14.00
2022-09-28T07:09:55.531Z,14.00
2022-09-28T07:13:04.782Z,14.00
2022-09-28T07:16:00.617Z,14.20
2022-09-28T07:18:46.509Z,14.00
2022-09-28T07:21:32.460Z,14.20
2022-09-28T07:24:20.705Z,14.10
2022-09-28T07:27:15.632Z,14.10
2022-09-28T07:30:20.216Z,14.20
2022-09-28T07:33:29.945Z,14.30
2022-09-28T07:36:27.466Z,14.80
2022-09-28T07:39:13.290Z,15.40
2022-09-28T07:42:02.542Z,15.80
2022-09-28T07:44:49.743Z,15.90
2022-09-28T07:47:35.671Z,16.10
2022-09-28T07:50:52.266Z,16.30
2022-09-28T07:54:06.537Z,16.30
2022-09-28T07:56:53.920Z,16.40
2022-09-28T08:00:09.526Z,16.50
2022-09-28T08:03:03.318Z,16.70
2022-09-28T08:05:51.349Z,16.70
2022-09-28T08:08:38.234Z,16.80
2022-09-28T08:11:25.074Z,16.80
2022-09-28T08:14:34.590Z,16.80
2022-09-28T08:17:33.802Z,16.90
2022-09-28T08:20:42.181Z,16.90
2022-09-28T08:23:27.852Z,17.00
2022-09-28T08:26:15.663Z,17.00
2022-09-28T08:29:03.681Z,17.00
2022-09-28T08:32:22.149Z,17.00
2022-09-28T08:35:26.597Z,17.00
2022-09-28T08:38:34.258Z,17.00
2022-09-28T08:41:51.800Z,17.00
2022-09-28T08:45:11.508Z,17.00
2022-09-28T08:48:22.225Z,16.80
2022-09-28T08:51:37.513Z,16.80
2022-09-28T08:54:54.945Z,16.70
2022-09-28T08:58:14.286Z,16.70
2022-09-28T09:01:06.685Z,16.70
2022-09-28T09:03:53.665Z,16.70
2022-09-28T09:07:25.548Z,16.70
2022-09-28T09:10:53.941Z,16.70
2022-09-28T09:14:04.623Z,16.70
2022-09-28T09:17:20.246Z,16.80
2022-09-28T09:20:24.781Z,16.80
2022-09-28T09:23:39.323Z,16.80
2022-09-28T09:26:40.756Z,16.90
2022-09-28T09:30:01.362Z,16.80
2022-09-28T09:32:56.097Z,16.90
2022-09-28T09:35:58.463Z,17.00
2022-09-28T09:39:34.448Z,17.00
2022-09-28T09:42:57.747Z,17.10
2022-09-28T09:46:19.657Z,17.10
2022-09-28T09:49:41.628Z,17.20
2022-09-28T09:55:32.958Z,17.20
2022-09-28T09:58:50.812Z,17.20
2022-09-28T10:01:44.849Z,17.20
2022-09-28T10:04:46.759Z,17.20
2022-09-28T10:07:47.061Z,17.20
2022-09-28T10:11:09.739Z,17.20
2022-09-28T10:13:59.371Z,17.20
2022-09-28T10:16:58.617Z,17.30
2022-09-28T10:20:23.357Z,17.30
2022-09-28T10:23:34.057Z,17.30
2022-09-28T10:26:25.424Z,17.40
2022-09-28T10:29:16.485Z,17.40
2022-09-28T10:32:03.292Z,17.30
2022-09-28T10:34:55.248Z,17.30
2022-09-28T10:38:14.221Z,17.40
2022-09-28T10:41:13.525Z,17.40
2022-09-28T10:44:27.253Z,17.50
2022-09-28T10:47:24.432Z,17.50
2022-09-28T10:50:28.532Z,17.60
2022-09-28T10:53:29.994Z,17.60
2022-09-28T10:56:23.401Z,17.60
2022-09-28T10:59:29.999Z,17.60
2022-09-28T11:02:37.580Z,17.70
2022-09-28T11:05:37.060Z,17.70
2022-09-28T11:08:30.590Z,17.70
2022-09-28T11:11:22.320Z,17.70
2022-09-28T11:14:43.712Z,17.70
2022-09-28T11:17:41.679Z,17.70
2022-09-28T11:20:33.439Z,17.70
2022-09-28T11:23:31.098Z,17.70
2022-09-28T11:26:25.583Z,17.70
2022-09-28T11:29:41.737Z,17.80
2022-09-28T11:32:43.832Z,17.80
2022-09-28T11:36:01.435Z,17.80
2022-09-28T11:38:47.532Z,17.80
2022-09-28T11:41:57.871Z,17.80
2022-09-28T11:44:46.943Z,17.90
2022-09-28T11:47:42.957Z,17.90
2022-09-28T11:50:51.643Z,17.90
2022-09-28T11:53:42.957Z,17.90
2022-09-28T11:56:42.100Z,17.90
2022-09-28T11:59:36.816Z,17.90
2022-09-28T12:02:29.126Z,17.90
2022-09-28T12:05:30.678Z,17.90
2022-09-28T12:08:20.511Z,17.90
2022-09-28T12:11:32.201Z,17.90
2022-09-28T12:14:40.432Z,17.90
2022-09-28T12:17:37.035Z,17.90
2022-09-28T12:20:41.914Z,18.00
2022-09-28T12:23:35.799Z,17.90
2022-09-28T12:26:35.828Z,17.90
2022-09-28T12:29:29.801Z,17.90
2022-09-28T12:32:49.301Z,17.90
2022-09-28T12:35:41.275Z,17.90
2022-09-28T12:38:36.154Z,17.90
2022-09-28T12:41:50.051Z,17.90
2022-09-28T12:44:41.929Z,17.90
2022-09-28T12:47:48.980Z,17.90
2022-09-28T12:51:08.607Z,17.90
2022-09-28T12:54:06.113Z,17.90
2022-09-28T12:57:13.934Z,17.80
2022-09-28T13:00:12.155Z,17.80
2022-09-28T13:03:08.283Z,17.90
2022-09-28T13:06:23.105Z,17.90
2022-09-28T13:09:30.067Z,17.90
2022-09-28T13:12:27.352Z,17.90
2022-09-28T13:15:18.560Z,17.90
2022-09-28T13:18:36.432Z,17.90
2022-09-28T13:21:38.561Z,17.90
2022-09-28T13:24:33.617Z,17.90
2022-09-28T13:27:36.402Z,18.00
2022-09-28T13:30:24.486Z,18.00
2022-09-28T13:33:21.531Z,18.00
2022-09-28T13:36:33.563Z,18.10
2022-09-28T13:39:48.818Z,18.10
2022-09-28T13:42:52.782Z,18.20
2022-09-28T13:46:15.350Z,18.30
2022-09-28T13:49:21.541Z,18.30
2022-09-28T13:52:42.697Z,18.40
2022-09-28T13:55:50.954Z,18.50
2022-09-28T13:59:00.209Z,18.60
2022-09-28T14:02:23.807Z,18.90
2022-09-28T14:05:47.952Z,19.20
2022-09-28T14:08:45.651Z,19.30
2022-09-28T14:11:38.887Z,19.20
2022-09-28T14:14:32.912Z,19.20
2022-09-28T14:17:25.607Z,19.10
2022-09-28T14:20:19.829Z,19.00
2022-09-28T14:23:34.831Z,18.90
2022-09-28T14:27:08.238Z,18.90
2022-09-28T14:30:27.917Z,18.90
2022-09-28T14:33:22.645Z,18.80
2022-09-28T14:36:57.297Z,18.90
2022-09-28T14:40:06.225Z,18.90
2022-09-28T14:43:28.422Z,18.90
2022-09-28T14:46:21.862Z,18.90
2022-09-28T14:49:26.548Z,19.10
2022-09-28T14:52:21.176Z,19.40
2022-09-28T14:55:19.150Z,19.60
2022-09-28T14:58:17.390Z,19.80
2022-09-28T15:01:13.493Z,19.90
2022-09-28T15:04:05.658Z,20.10
2022-09-28T15:06:56.737Z,20.30
2022-09-28T15:09:45.053Z,20.50
2022-09-28T15:12:34.316Z,20.60
2022-09-28T15:15:47.379Z,20.70
2022-09-28T15:19:13.874Z,22.10
2022-09-28T15:22:01.812Z,20.50
2022-09-28T15:25:03.142Z,20.30
2022-09-28T15:27:56.924Z,19.40
2022-09-28T15:30:43.884Z,20.10
2022-09-28T15:33:50.089Z,19.90
2022-09-28T15:36:39.615Z,19.80
2022-09-28T15:39:32.299Z,19.70
2022-09-28T15:42:18.978Z,19.60
2022-09-28T15:45:07.816Z,19.60
2022-09-28T15:48:39.301Z,19.70
2022-09-28T15:51:25.656Z,19.70
2022-09-28T15:54:19.533Z,19.70
2022-09-28T15:57:05.072Z,19.70
2022-09-28T15:59:57.013Z,19.70
2022-09-28T16:03:17.838Z,19.60
2022-09-28T16:06:11.156Z,19.60
2022-09-28T16:08:56.632Z,19.50
2022-09-28T16:11:42.270Z,19.40
2022-09-28T16:14:27.787Z,19.40
2022-09-28T16:17:38.793Z,19.30
2022-09-28T16:20:32.351Z,19.30
2022-09-28T16:23:34.038Z,19.20
2022-09-28T16:26:37.387Z,19.20
2022-09-28T16:29:40.828Z,19.20
2022-09-28T16:32:26.268Z,19.20
2022-09-28T16:35:11.654Z,19.20
2022-09-28T16:38:02.667Z,19.10
2022-09-28T16:40:50.666Z,19.10
2022-09-28T16:43:36.591Z,19.10
2022-09-28T16:46:29.357Z,19.00
2022-09-28T16:49:20.090Z,19.00
2022-09-28T16:52:12.369Z,19.00
2022-09-28T16:55:38.774Z,19.00
2022-09-28T16:58:22.328Z,18.90
2022-09-28T17:01:11.586Z,18.90
2022-09-28T17:03:57.277Z,18.90
2022-09-28T17:06:43.555Z,18.90
2022-09-28T17:09:29.416Z,18.90
2022-09-28T17:12:22.532Z,18.80
2022-09-28T17:15:08.496Z,18.80
2022-09-28T17:17:55.841Z,18.80
2022-09-28T17:20:44.709Z,18.70
2022-09-28T17:23:30.919Z,18.70
2022-09-28T17:26:19.242Z,18.60
2022-09-28T17:29:08.785Z,18.50
2022-09-28T17:31:55.096Z,18.40
2022-09-28T17:34:40.914Z,18.30
2022-09-28T17:37:26.429Z,18.30
2022-09-28T17:40:25.793Z,18.20
2022-09-28T17:43:11.541Z,18.10
2022-09-28T17:45:57.285Z,18.10
2022-09-28T17:48:46.064Z,18.00
2022-09-28T17:51:34.964Z,18.00
2022-09-28T17:54:22.536Z,18.00
2022-09-28T17:57:09.872Z,17.90
2022-09-28T17:59:55.322Z,17.90
2022-09-28T18:02:41.445Z,17.90
2022-09-28T18:05:29.393Z,17.90
2022-09-28T18:08:18.718Z,17.90
2022-09-28T18:11:04.728Z,17.90
2022-09-28T18:13:50.539Z,17.90
2022-09-28T18:16:36.636Z,17.90
2022-09-28T18:19:22.089Z,17.80
2022-09-28T18:22:07.806Z,17.80
2022-09-28T18:24:53.476Z,17.80
2022-09-28T18:27:39.108Z,17.80
2022-09-28T18:30:25.175Z,17.80
2022-09-28T18:33:13.155Z,17.90
2022-09-28T18:35:59.091Z,17.90
2022-09-28T18:38:44.887Z,18.00
2022-09-28T18:41:30.477Z,18.10
2022-09-28T18:44:16.332Z,18.00
2022-09-28T18:47:02.399Z,18.00
2022-09-28T18:49:47.934Z,18.00
2022-09-28T18:52:36.619Z,17.90
2022-09-28T18:55:22.328Z,17.90
2022-09-28T18:58:10.393Z,17.80
2022-09-28T19:01:13.554Z,17.80
2022-09-28T19:04:03.347Z,17.80
2022-09-28T19:06:52.392Z,17.80
2022-09-28T19:09:40.551Z,17.70
2022-09-28T19:12:26.498Z,17.70
2022-09-28T19:15:12.859Z,17.70
2022-09-28T19:17:58.558Z,17.70
2022-09-28T19:20:44.613Z,17.70
2022-09-28T19:23:30.153Z,17.60
2022-09-28T19:26:21.982Z,17.60
2022-09-28T19:29:07.881Z,17.60
2022-09-28T19:31:53.393Z,17.60
2022-09-28T19:34:39.052Z,17.60
2022-09-28T19:37:24.763Z,17.60
2022-09-28T19:40:10.458Z,17.60
2022-09-28T19:42:55.989Z,17.60
2022-09-28T19:45:42.746Z,17.60
2022-09-28T19:48:29.192Z,17.60
2022-09-28T19:51:15.515Z,17.50
2022-09-28T19:54:05.989Z,17.50
2022-09-28T19:56:52.721Z,17.50
2022-09-28T19:59:38.954Z,17.50
2022-09-28T20:02:24.502Z,17.50
2022-09-28T20:05:09.857Z,17.50
2022-09-28T20:07:55.463Z,17.50
2022-09-28T20:10:49.360Z,17.50
2022-09-28T20:13:37.768Z,17.50
2022-09-28T20:16:24.596Z,17.50
2022-09-28T20:19:10.153Z,17.50
2022-09-28T20:21:59.471Z,17.20
2022-09-28T20:24:44.885Z,16.90
2022-09-28T20:27:30.437Z,16.50
2022-09-28T20:30:16.149Z,16.20
2022-09-28T20:33:01.828Z,16.00
2022-09-28T20:35:47.644Z,15.80
2022-09-28T20:38:33.560Z,15.50
2022-09-28T20:41:22.036Z,15.30
2022-09-28T20:44:08.114Z,15.10
2022-09-28T20:46:53.955Z,14.90
2022-09-28T20:49:39.312Z,14.80
2022-09-28T20:52:25.060Z,14.60
2022-09-28T20:55:10.682Z,14.40
2022-09-28T20:57:56.178Z,14.30
2022-09-28T21:00:41.630Z,14.20
2022-09-28T21:03:27.101Z,14.10
2022-09-28T21:06:14.199Z,14.10
2022-09-28T21:09:00.100Z,14.00
2022-09-28T21:11:46.384Z,13.90
2022-09-28T21:14:32.233Z,13.80
2022-09-28T21:17:17.592Z,13.70
2022-09-28T21:20:03.812Z,13.70
2022-09-28T21:22:49.561Z,13.70
2022-09-28T21:25:34.974Z,13.60
2022-09-28T21:28:20.497Z,13.60
2022-09-28T21:31:10.261Z,13.50
2022-09-28T21:33:56.065Z,13.50
2022-09-28T21:36:43.476Z,13.50
2022-09-28T21:39:29.094Z,13.40
2022-09-28T21:42:14.506Z,13.50
2022-09-28T21:44:59.911Z,13.40
2022-09-28T21:47:52.742Z,13.40
2022-09-28T21:50:38.113Z,13.40
2022-09-28T21:53:29.054Z,13.40
2022-09-28T21:56:14.490Z,13.40
2022-09-28T21:59:01.250Z,13.40
2022-09-28T22:01:48.169Z,13.40
2022-09-28T22:04:33.592Z,13.40
2022-09-28T22:07:19.083Z,13.40
2022-09-28T22:10:08.825Z,13.40
2022-09-28T22:12:54.610Z,13.50
2022-09-28T22:15:40.290Z,13.40
2022-09-28T22:18:27.295Z,13.50
2022-09-28T22:21:16.651Z,13.50
2022-09-28T22:24:05.468Z,13.50
2022-09-28T22:26:51.269Z,13.50
2022-09-28T22:29:36.740Z,13.40
2022-09-28T22:32:23.812Z,13.40
2022-09-28T22:35:09.756Z,12.80
2022-09-28T22:37:55.260Z,13.40
2022-09-28T22:40:55.486Z,13.40
2022-09-28T22:43:40.889Z,13.30
2022-09-28T22:46:28.712Z,13.30
2022-09-28T22:49:14.361Z,13.30
2022-09-28T22:51:59.872Z,13.30
2022-09-28T22:54:46.310Z,13.20
2022-09-28T22:57:32.173Z,13.30
2022-09-28T23:00:17.841Z,13.20
2022-09-28T23:03:03.813Z,13.20
2022-09-28T23:05:54.101Z,13.20
2022-09-28T23:08:39.826Z,13.20
2022-09-28T23:11:25.358Z,13.20
2022-09-28T23:14:12.528Z,13.20
2022-09-28T23:16:58.309Z,13.30
2022-09-28T23:19:43.920Z,13.20
2022-09-28T23:22:29.439Z,13.20
2022-09-28T23:25:16.769Z,13.20
2022-09-28T23:28:02.642Z,13.10
2022-09-28T23:30:48.898Z,13.20
2022-09-28T23:33:34.555Z,13.10
2022-09-28T23:36:20.226Z,13.10
2022-09-28T23:39:05.827Z,13.10
2022-09-28T23:41:51.209Z,13.10
2022-09-28T23:44:36.875Z,13.10
2022-09-28T23:47:22.563Z,13.10
2022-09-28T23:50:08.471Z,13.00
2022-09-28T23:52:54.127Z,13.00
2022-09-28T23:55:39.644Z,13.00
2022-09-28T23:58:25.825Z,13.10
